createdAt,value
2023-03-22T00:00:17.133Z,84.81
2023-03-22T00:02:43.832Z,85.21
2023-03-22T00:05:11.674Z,85.38
2023-03-22T00:07:38.394Z,84.74
2023-03-22T00:10:05.849Z,85.42
2023-03-22T00:12:32.349Z,85.03
2023-03-22T00:15:00.118Z,85.05
2023-03-22T00:17:26.600Z,85.49
2023-03-22T00:19:54.559Z,85.14
2023-03-22T00:22:21.777Z,85.52
2023-03-22T00:24:48.365Z,85.74
2023-03-22T00:27:14.940Z,85.61
2023-03-22T00:29:44.388Z,85.98
2023-03-22T00:32:13.989Z,86.51
2023-03-22T00:34:40.663Z,85.55
2023-03-22T00:37:08.060Z,85.68
2023-03-22T00:39:34.641Z,86.45
2023-03-22T00:42:01.465Z,85.86
2023-03-22T00:44:27.992Z,86.50
2023-03-22T00:46:54.526Z,86.67
2023-03-22T00:49:21.947Z,86.32
2023-03-22T00:51:48.475Z,86.72
2023-03-22T00:54:15.992Z,86.21
2023-03-22T00:56:46.434Z,85.96
2023-03-22T00:59:14.345Z,85.88
2023-03-22T01:01:43.008Z,86.12
2023-03-22T01:04:18.188Z,86.49
2023-03-22T01:06:46.994Z,86.79
2023-03-22T01:09:15.094Z,85.95
2023-03-22T01:11:45.934Z,86.35
2023-03-22T01:14:16.777Z,86.76
2023-03-22T01:16:43.359Z,86.01
2023-03-22T01:19:10.102Z,86.16
2023-03-22T01:21:37.794Z,86.74
2023-03-22T01:24:04.514Z,86.10
2023-03-22T01:26:31.323Z,86.35
2023-03-22T01:28:57.845Z,86.24
2023-03-22T01:31:24.525Z,86.52
2023-03-22T01:33:51.398Z,86.74
2023-03-22T01:36:17.974Z,86.26
2023-03-22T01:38:44.663Z,86.42
2023-03-22T01:41:11.748Z,86.21
2023-03-22T01:43:42.225Z,86.28
2023-03-22T01:46:09.690Z,86.82
2023-03-22T01:48:46.263Z,86.29
2023-03-22T01:51:24.813Z,86.43
2023-03-22T01:54:08.955Z,86.31
2023-03-22T01:56:39.094Z,85.92
2023-03-22T01:59:10.170Z,85.81
2023-03-22T02:02:04.608Z,86.49
2023-03-22T02:04:36.671Z,86.38
2023-03-22T02:07:15.186Z,86.30
2023-03-22T02:09:43.352Z,86.02
2023-03-22T02:12:41.758Z,86.35
2023-03-22T02:15:29.736Z,86.26
2023-03-22T02:18:38.921Z,86.90
2023-03-22T02:21:31.802Z,86.55
2023-03-22T02:24:23.475Z,86.50
2023-03-22T02:27:10.562Z,87.13
2023-03-22T02:29:45.123Z,86.82
2023-03-22T02:32:31.824Z,86.96
2023-03-22T02:35:26.439Z,87.10
2023-03-22T02:38:20.484Z,87.16
2023-03-22T02:41:23.797Z,87.44
2023-03-22T02:44:28.056Z,88.08
2023-03-22T02:47:06.857Z,87.44
2023-03-22T02:49:45.978Z,88.54
2023-03-22T02:52:33.470Z,87.75
2023-03-22T02:55:07.760Z,88.64
2023-03-22T02:58:19.546Z,89.00
2023-03-22T03:00:51.157Z,89.23
2023-03-22T03:03:19.913Z,89.16
2023-03-22T03:05:55.524Z,89.13
2023-03-22T03:08:23.922Z,89.18
2023-03-22T03:10:52.611Z,89.58
2023-03-22T03:13:19.362Z,89.97
2023-03-22T03:15:54.309Z,90.47
2023-03-22T03:18:46.107Z,89.91
2023-03-22T03:21:32.629Z,90.34
2023-03-22T03:24:39.805Z,90.58
2023-03-22T03:27:16.882Z,90.96
2023-03-22T03:30:05.806Z,90.85
2023-03-22T03:32:38.296Z,90.96
2023-03-22T03:35:22.384Z,91.28
2023-03-22T03:38:08.740Z,91.47
2023-03-22T03:40:41.216Z,91.39
2023-03-22T03:43:09.790Z,91.80
2023-03-22T03:45:37.689Z,90.75
2023-03-22T03:48:09.146Z,91.41
2023-03-22T03:50:37.605Z,91.49
2023-03-22T03:53:04.502Z,91.50
2023-03-22T03:55:32.127Z,91.53
2023-03-22T03:57:58.632Z,91.67
2023-03-22T04:00:25.343Z,92.16
2023-03-22T04:03:18.244Z,91.38
2023-03-22T04:06:03.764Z,91.28
2023-03-22T04:08:34.665Z,91.17
2023-03-22T04:11:01.773Z,91.52
2023-03-22T04:13:29.786Z,91.15
2023-03-22T04:16:02.076Z,91.31
2023-03-22T04:18:32.125Z,91.56
2023-03-22T04:21:03.429Z,91.46
2023-03-22T04:23:35.570Z,91.88
2023-03-22T04:26:02.150Z,91.30
2023-03-22T04:28:39.133Z,91.57
2023-03-22T04:31:06.878Z,91.56
2023-03-22T04:33:47.297Z,91.42
2023-03-22T04:36:22.989Z,91.60
2023-03-22T04:39:11.627Z,91.39
2023-03-22T04:41:39.438Z,90.97
2023-03-22T04:44:07.327Z,90.64
2023-03-22T04:46:37.828Z,91.12
2023-03-22T04:49:06.717Z,91.33
2023-03-22T04:51:36.801Z,90.47
2023-03-22T04:54:32.570Z,91.17
2023-03-22T04:56:59.247Z,91.02
2023-03-22T04:59:27.925Z,91.14
2023-03-22T05:01:54.715Z,90.99
2023-03-22T05:04:27.141Z,90.45
2023-03-22T05:07:00.392Z,90.54
2023-03-22T05:09:35.740Z,90.07
2023-03-22T05:12:03.843Z,90.13
2023-03-22T05:14:39.546Z,90.68
2023-03-22T05:17:09.880Z,90.34
2023-03-22T05:19:38.652Z,90.09
2023-03-22T05:22:05.317Z,90.36
2023-03-22T05:24:48.613Z,90.36
2023-03-22T05:27:30.908Z,89.80
2023-03-22T05:30:04.631Z,89.96
2023-03-22T05:33:03.208Z,90.54
2023-03-22T05:35:33.958Z,89.92
2023-03-22T05:38:02.442Z,90.37
2023-03-22T05:40:31.626Z,90.29
2023-03-22T05:42:58.374Z,90.14
2023-03-22T05:45:27.291Z,90.02
2023-03-22T05:48:11.121Z,89.65
2023-03-22T05:50:38.614Z,89.94
2023-03-22T05:53:05.784Z,90.12
2023-03-22T05:55:47.762Z,89.85
2023-03-22T05:58:19.100Z,90.16
2023-03-22T06:00:49.902Z,90.54
2023-03-22T06:03:39.788Z,90.09
2023-03-22T06:06:14.335Z,90.61
2023-03-22T06:08:47.922Z,89.77
2023-03-22T06:11:15.561Z,89.74
2023-03-22T06:13:42.052Z,90.07
2023-03-22T06:16:10.103Z,90.01
2023-03-22T06:18:36.780Z,89.86
2023-03-22T06:21:08.462Z,89.08
2023-03-22T06:23:34.999Z,88.99
2023-03-22T06:26:01.492Z,89.34
2023-03-22T06:28:29.850Z,89.22
2023-03-22T06:30:57.684Z,89.00
2023-03-22T06:33:31.343Z,89.22
2023-03-22T06:36:06.561Z,88.23
2023-03-22T06:38:41.194Z,87.82
2023-03-22T06:41:07.662Z,87.06
2023-03-22T06:43:34.269Z,86.01
2023-03-22T06:46:12.168Z,85.58
2023-03-22T06:48:45.814Z,85.46
2023-03-22T06:51:15.241Z,85.18
2023-03-22T06:53:42.334Z,84.99
2023-03-22T06:56:09.719Z,84.94
2023-03-22T06:58:50.171Z,85.18
2023-03-22T07:01:19.305Z,85.47
2023-03-22T07:03:47.824Z,84.87
2023-03-22T07:06:16.440Z,84.55
2023-03-22T07:08:46.786Z,84.59
2023-03-22T07:11:43.125Z,84.95
2023-03-22T07:14:09.649Z,84.30
2023-03-22T07:16:55.021Z,84.31
2023-03-22T07:19:23.102Z,84.39
2023-03-22T07:21:52.583Z,83.25
2023-03-22T07:24:20.308Z,83.62
2023-03-22T07:26:46.927Z,83.73
2023-03-22T07:29:18.432Z,83.88
2023-03-22T07:31:45.785Z,83.55
2023-03-22T07:34:30.496Z,83.14
2023-03-22T07:37:04.271Z,83.29
2023-03-22T07:39:31.513Z,82.84
2023-03-22T07:41:58.495Z,82.65
2023-03-22T07:44:25.220Z,82.24
2023-03-22T07:47:27.188Z,82.02
2023-03-22T07:50:21.134Z,81.48
2023-03-22T07:52:53.129Z,81.15
2023-03-22T07:55:19.771Z,81.07
2023-03-22T07:57:46.487Z,80.62
2023-03-22T08:00:15.629Z,80.97
2023-03-22T08:02:45.968Z,80.94
2023-03-22T08:05:25.506Z,80.51
2023-03-22T08:07:58.923Z,80.08
2023-03-22T08:10:26.930Z,79.47
2023-03-22T08:12:54.420Z,78.45
2023-03-22T08:15:24.021Z,77.74
2023-03-22T08:17:50.886Z,77.10
2023-03-22T08:20:28.053Z,77.36
2023-03-22T08:22:58.977Z,76.48
2023-03-22T08:26:00.847Z,77.88
2023-03-22T08:28:27.814Z,77.44
2023-03-22T08:30:54.251Z,77.48
2023-03-22T08:33:23.653Z,77.94
2023-03-22T08:35:52.314Z,77.28
2023-03-22T08:38:19.631Z,77.95
2023-03-22T08:40:49.893Z,78.14
2023-03-22T08:43:20.959Z,77.14
2023-03-22T08:45:47.587Z,77.77
2023-03-22T08:48:16.313Z,76.63
2023-03-22T08:51:02.390Z,76.17
2023-03-22T08:53:38.859Z,75.86
2023-03-22T08:56:27.342Z,75.86
2023-03-22T08:59:09.867Z,75.29
2023-03-22T09:01:52.683Z,75.32
2023-03-22T09:04:19.464Z,75.19
2023-03-22T09:06:47.059Z,75.81
2023-03-22T09:09:16.240Z,76.22
2023-03-22T09:11:46.199Z,75.81
2023-03-22T09:14:12.853Z,76.11
2023-03-22T09:16:39.715Z,75.97
2023-03-22T09:19:06.783Z,74.96
2023-03-22T09:21:34.110Z,75.77
2023-03-22T09:24:16.570Z,76.11
2023-03-22T09:26:46.840Z,75.73
2023-03-22T09:29:16.423Z,76.66
2023-03-22T09:31:54.905Z,76.39
2023-03-22T09:34:29.133Z,77.50
2023-03-22T09:36:59.287Z,77.65
2023-03-22T09:39:29.826Z,78.16
2023-03-22T09:42:02.434Z,78.89
2023-03-22T09:44:41.546Z,78.90
2023-03-22T09:47:17.856Z,79.79
2023-03-22T09:49:53.801Z,81.07
2023-03-22T09:52:20.769Z,81.35
2023-03-22T09:54:47.549Z,82.20
2023-03-22T09:57:26.250Z,82.54
2023-03-22T10:00:14.851Z,82.98
2023-03-22T10:03:01.744Z,83.16
2023-03-22T10:05:51.300Z,83.92
2023-03-22T10:08:38.936Z,84.32
2023-03-22T10:11:16.102Z,84.27
2023-03-22T10:14:00.753Z,84.17
2023-03-22T10:16:33.147Z,84.92
2023-03-22T10:19:20.735Z,84.96
2023-03-22T10:21:50.492Z,85.11
2023-03-22T10:24:23.646Z,85.35
2023-03-22T10:26:52.258Z,84.79
2023-03-22T10:29:38.348Z,85.17
2023-03-22T10:32:15.868Z,84.95
2023-03-22T10:34:43.516Z,84.89
2023-03-22T10:37:17.310Z,85.36
2023-03-22T10:39:50.712Z,85.86
2023-03-22T10:42:21.755Z,85.60
2023-03-22T10:44:52.666Z,85.90
2023-03-22T10:47:26.963Z,86.13
2023-03-22T10:49:56.250Z,86.47
2023-03-22T10:52:36.940Z,86.15
2023-03-22T10:55:04.772Z,87.13
2023-03-22T10:57:31.465Z,87.62
2023-03-22T10:59:58.461Z,86.70
2023-03-22T11:02:31.694Z,87.65
2023-03-22T11:05:05.866Z,86.96
2023-03-22T11:07:38.089Z,87.03
2023-03-22T11:10:10.489Z,87.73
2023-03-22T11:12:43.642Z,87.71
2023-03-22T11:15:51.990Z,87.59
2023-03-22T11:18:19.434Z,87.10
2023-03-22T11:20:56.914Z,86.80
2023-03-22T11:23:25.803Z,87.10
2023-03-22T11:25:56.427Z,87.28
2023-03-22T11:28:40.638Z,87.43
2023-03-22T11:31:15.844Z,86.32
2023-03-22T11:33:57.502Z,86.95
2023-03-22T11:36:25.053Z,87.26
2023-03-22T11:39:00.601Z,86.94
2023-03-22T11:41:29.811Z,86.04
2023-03-22T11:44:03.266Z,86.51
2023-03-22T11:46:31.647Z,85.47
2023-03-22T11:49:02.478Z,85.85
2023-03-22T11:51:33.375Z,86.41
2023-03-22T11:54:13.389Z,85.75
2023-03-22T11:56:43.408Z,86.19
2023-03-22T11:59:30.335Z,85.90
2023-03-22T12:02:03.334Z,85.76
2023-03-22T12:04:34.491Z,85.67
2023-03-22T12:07:06.419Z,85.94
2023-03-22T12:09:51.915Z,85.73
2023-03-22T12:12:27.104Z,85.02
2023-03-22T12:15:06.766Z,85.43
2023-03-22T12:17:58.982Z,85.37
2023-03-22T12:20:42.379Z,85.99
2023-03-22T12:23:16.325Z,85.43
2023-03-22T12:25:56.980Z,85.01
2023-03-22T12:28:30.017Z,84.97
2023-03-22T12:30:58.477Z,85.04
2023-03-22T12:33:25.367Z,84.77
2023-03-22T12:35:58.105Z,85.46
2023-03-22T12:38:42.768Z,84.72
2023-03-22T12:41:26.433Z,85.16
2023-03-22T12:43:56.101Z,84.97
2023-03-22T12:46:29.093Z,84.86
2023-03-22T12:49:22.314Z,84.89
2023-03-22T12:51:52.220Z,84.46
2023-03-22T12:54:24.053Z,84.82
2023-03-22T12:56:52.754Z,85.01
2023-03-22T12:59:28.783Z,84.39
2023-03-22T13:02:06.205Z,83.90
2023-03-22T13:04:35.869Z,84.35
2023-03-22T13:07:14.413Z,84.39
2023-03-22T13:09:51.467Z,84.45
2023-03-22T13:12:18.052Z,84.60
2023-03-22T13:14:57.966Z,84.76
2023-03-22T13:17:24.889Z,83.85
2023-03-22T13:20:06.779Z,84.73
2023-03-22T13:22:36.447Z,84.49
2023-03-22T13:25:07.200Z,84.77
2023-03-22T13:27:39.708Z,84.56
2023-03-22T13:30:17.107Z,84.05
2023-03-22T13:32:54.607Z,84.36
2023-03-22T13:35:27.834Z,83.71
2023-03-22T13:38:04.673Z,84.21
2023-03-22T13:40:49.012Z,84.29
2023-03-22T13:43:25.329Z,84.07
2023-03-22T13:46:06.709Z,84.90
2023-03-22T13:48:47.035Z,84.79
2023-03-22T13:51:30.099Z,85.59
2023-03-22T13:54:20.622Z,86.03
2023-03-22T13:57:00.999Z,85.75
2023-03-22T13:59:28.047Z,86.67
2023-03-22T14:02:05.383Z,85.76
2023-03-22T14:04:40.797Z,86.04
2023-03-22T14:07:31.416Z,86.10
2023-03-22T14:10:03.456Z,86.14
2023-03-22T14:12:53.688Z,86.72
2023-03-22T14:15:24.156Z,86.89
2023-03-22T14:18:04.247Z,86.71
2023-03-22T14:20:35.666Z,86.47
